sensor_id;sensor_type;location;lat;lon;timestamp;pressure;altitude;pressure_sealevel;temperature;humidity
55171;BME280;41060;47.510;8.680;2023-10-19T00:01:55;95724.03;;;12.50;59.10
55171;BME280;41060;47.510;8.680;2023-10-19T00:04:21;95723.38;;;12.32;59.69
55171;BME280;41060;47.510;8.680;2023-10-19T00:06:48;95729.66;;;12.14;60.26
55171;BME280;41060;47.510;8.680;2023-10-19T00:09:15;95720.53;;;12.25;60.51
55171;BME280;41060;47.510;8.680;2023-10-19T00:11:41;95716.38;;;12.47;59.79
55171;BME280;41060;47.510;8.680;2023-10-19T00:14:09;95717.03;;;12.57;59.25
55171;BME280;41060;47.510;8.680;2023-10-19T00:16:42;95714.91;;;12.44;59.41
55171;BME280;41060;47.510;8.680;2023-10-19T00:19:15;95715.06;;;12.59;59.05
55171;BME280;41060;47.510;8.680;2023-10-19T00:21:45;95709.25;;;12.55;59.40
55171;BME280;41060;47.510;8.680;2023-10-19T00:24:20;95702.63;;;12.43;59.86
55171;BME280;41060;47.510;8.680;2023-10-19T00:26:48;95691.69;;;12.22;60.49
55171;BME280;41060;47.510;8.680;2023-10-19T00:29:20;95707.25;;;12.33;60.50
55171;BME280;41060;47.510;8.680;2023-10-19T00:31:59;95706.28;;;12.42;60.30
55171;BME280;41060;47.510;8.680;2023-10-19T00:34:27;95706.25;;;12.58;59.86
55171;BME280;41060;47.510;8.680;2023-10-19T00:36:54;95704.91;;;12.62;59.51
55171;BME280;41060;47.510;8.680;2023-10-19T00:39:22;95703.09;;;12.63;59.56
55171;BME280;41060;47.510;8.680;2023-10-19T00:41:49;95706.94;;;12.60;59.43
55171;BME280;41060;47.510;8.680;2023-10-19T00:44:20;95709.22;;;12.72;58.92
55171;BME280;41060;47.510;8.680;2023-10-19T00:46:59;95701.06;;;12.81;58.40
55171;BME280;41060;47.510;8.680;2023-10-19T00:49:30;95701.69;;;12.91;58.18
55171;BME280;41060;47.510;8.680;2023-10-19T00:52:00;95698.84;;;13.01;58.12
55171;BME280;41060;47.510;8.680;2023-10-19T00:54:38;95691.03;;;13.08;57.66
55171;BME280;41060;47.510;8.680;2023-10-19T00:57:08;95685.72;;;13.08;57.83
55171;BME280;41060;47.510;8.680;2023-10-19T00:59:37;95674.47;;;13.06;58.02
55171;BME280;41060;47.510;8.680;2023-10-19T01:02:09;95681.41;;;13.07;57.75
55171;BME280;41060;47.510;8.680;2023-10-19T01:04:55;95679.09;;;13.12;57.61
55171;BME280;41060;47.510;8.680;2023-10-19T01:07:26;95670.63;;;13.08;57.79
55171;BME280;41060;47.510;8.680;2023-10-19T01:09:55;95667.97;;;13.08;57.51
55171;BME280;41060;47.510;8.680;2023-10-19T01:12:25;95666.63;;;13.12;57.49
55171;BME280;41060;47.510;8.680;2023-10-19T01:15:05;95645.41;;;13.04;57.30
55171;BME280;41060;47.510;8.680;2023-10-19T01:17:34;95666.09;;;13.17;57.35
55171;BME280;41060;47.510;8.680;2023-10-19T01:20:06;95665.97;;;13.10;57.75
55171;BME280;41060;47.510;8.680;2023-10-19T01:22:47;95668.63;;;13.10;57.81
55171;BME280;41060;47.510;8.680;2023-10-19T01:25:15;95662.00;;;13.06;58.04
55171;BME280;41060;47.510;8.680;2023-10-19T01:27:49;95662.78;;;13.15;57.67
55171;BME280;41060;47.510;8.680;2023-10-19T01:30:22;95665.97;;;13.02;58.58
55171;BME280;41060;47.510;8.680;2023-10-19T01:32:49;95663.06;;;12.81;59.51
55171;BME280;41060;47.510;8.680;2023-10-19T01:35:17;95650.75;;;12.88;59.27
55171;BME280;41060;47.510;8.680;2023-10-19T01:37:45;95644.03;;;13.00;58.53
55171;BME280;41060;47.510;8.680;2023-10-19T01:40:11;95631.13;;;13.05;58.44
55171;BME280;41060;47.510;8.680;2023-10-19T01:42:41;95629.09;;;13.07;58.35
55171;BME280;41060;47.510;8.680;2023-10-19T01:45:07;95634.91;;;13.02;58.96
55171;BME280;41060;47.510;8.680;2023-10-19T01:47:37;95628.47;;;12.97;58.83
55171;BME280;41060;47.510;8.680;2023-10-19T01:50:03;95619.13;;;13.01;58.43
55171;BME280;41060;47.510;8.680;2023-10-19T01:52:31;95622.78;;;13.08;58.50
55171;BME280;41060;47.510;8.680;2023-10-19T01:54:58;95612.50;;;13.13;58.30
55171;BME280;41060;47.510;8.680;2023-10-19T01:57:34;95616.19;;;13.04;58.96
55171;BME280;41060;47.510;8.680;2023-10-19T02:00:04;95628.47;;;12.97;59.22
55171;BME280;41060;47.510;8.680;2023-10-19T02:02:36;95623.88;;;12.83;59.99
55171;BME280;41060;47.510;8.680;2023-10-19T02:05:03;95626.41;;;12.76;60.06
55171;BME280;41060;47.510;8.680;2023-10-19T02:07:33;95621.25;;;12.75;59.96
55171;BME280;41060;47.510;8.680;2023-10-19T02:10:01;95614.31;;;12.65;60.39
55171;BME280;41060;47.510;8.680;2023-10-19T02:12:29;95623.66;;;12.53;61.26
55171;BME280;41060;47.510;8.680;2023-10-19T02:14:55;95618.66;;;12.58;60.78
55171;BME280;41060;47.510;8.680;2023-10-19T02:17:21;95618.25;;;12.70;60.44
55171;BME280;41060;47.510;8.680;2023-10-19T02:19:49;95618.38;;;12.84;60.01
55171;BME280;41060;47.510;8.680;2023-10-19T02:22:17;95599.25;;;12.97;59.28
55171;BME280;41060;47.510;8.680;2023-10-19T02:24:43;95585.13;;;13.05;58.75
55171;BME280;41060;47.510;8.680;2023-10-19T02:27:11;95571.69;;;13.06;58.81
55171;BME280;41060;47.510;8.680;2023-10-19T02:29:37;95552.25;;;13.06;58.94
55171;BME280;41060;47.510;8.680;2023-10-19T02:32:04;95557.84;;;13.11;58.80
55171;BME280;41060;47.510;8.680;2023-10-19T02:34:34;95583.56;;;12.71;60.58
55171;BME280;41060;47.510;8.680;2023-10-19T02:37:00;95566.78;;;12.79;60.08
55171;BME280;41060;47.510;8.680;2023-10-19T02:39:27;95587.56;;;12.75;60.39
55171;BME280;41060;47.510;8.680;2023-10-19T02:41:54;95585.66;;;12.45;61.27
55171;BME280;41060;47.510;8.680;2023-10-19T02:44:23;95567.81;;;12.70;60.79
55171;BME280;41060;47.510;8.680;2023-10-19T02:46:52;95578.13;;;12.64;60.84
55171;BME280;41060;47.510;8.680;2023-10-19T02:49:24;95558.13;;;12.85;59.75
55171;BME280;41060;47.510;8.680;2023-10-19T02:51:52;95570.19;;;12.95;59.52
55171;BME280;41060;47.510;8.680;2023-10-19T02:54:28;95580.44;;;13.07;59.35
55171;BME280;41060;47.510;8.680;2023-10-19T02:56:58;95581.22;;;13.15;58.89
55171;BME280;41060;47.510;8.680;2023-10-19T02:59:27;95578.41;;;13.17;59.10
55171;BME280;41060;47.510;8.680;2023-10-19T03:01:55;95569.03;;;13.06;59.37
55171;BME280;41060;47.510;8.680;2023-10-19T03:04:26;95572.22;;;12.85;59.84
55171;BME280;41060;47.510;8.680;2023-10-19T03:06:54;95556.78;;;12.89;60.04
55171;BME280;41060;47.510;8.680;2023-10-19T03:09:21;95562.88;;;13.06;59.33
55171;BME280;41060;47.510;8.680;2023-10-19T03:11:48;95558.84;;;13.10;59.19
55171;BME280;41060;47.510;8.680;2023-10-19T03:14:19;95557.56;;;13.06;59.27
55171;BME280;41060;47.510;8.680;2023-10-19T03:16:46;95551.81;;;12.86;60.19
55171;BME280;41060;47.510;8.680;2023-10-19T03:19:12;95541.50;;;12.91;59.91
55171;BME280;41060;47.510;8.680;2023-10-19T03:21:39;95543.44;;;13.05;59.43
55171;BME280;41060;47.510;8.680;2023-10-19T03:24:08;95544.69;;;13.17;58.83
55171;BME280;41060;47.510;8.680;2023-10-19T03:26:38;95535.34;;;13.21;58.66
55171;BME280;41060;47.510;8.680;2023-10-19T03:29:09;95542.03;;;13.17;58.62
55171;BME280;41060;47.510;8.680;2023-10-19T03:31:42;95527.84;;;12.94;59.04
55171;BME280;41060;47.510;8.680;2023-10-19T03:34:11;95538.53;;;12.86;59.84
55171;BME280;41060;47.510;8.680;2023-10-19T03:36:39;95531.50;;;12.93;59.14
55171;BME280;41060;47.510;8.680;2023-10-19T03:39:07;95535.09;;;13.08;58.91
55171;BME280;41060;47.510;8.680;2023-10-19T03:41:39;95506.41;;;12.73;59.64
55171;BME280;41060;47.510;8.680;2023-10-19T03:44:08;95533.53;;;12.91;59.62
55171;BME280;41060;47.510;8.680;2023-10-19T03:46:39;95523.66;;;12.99;59.25
55171;BME280;41060;47.510;8.680;2023-10-19T03:49:21;95518.34;;;13.08;58.98
55171;BME280;41060;47.510;8.680;2023-10-19T03:51:48;95519.94;;;13.17;58.73
55171;BME280;41060;47.510;8.680;2023-10-19T03:54:44;95517.22;;;12.94;59.48
55171;BME280;41060;47.510;8.680;2023-10-19T03:57:14;95516.41;;;12.93;59.65
55171;BME280;41060;47.510;8.680;2023-10-19T03:59:45;95522.19;;;13.05;59.19
55171;BME280;41060;47.510;8.680;2023-10-19T04:02:15;95521.94;;;13.15;58.77
55171;BME280;41060;47.510;8.680;2023-10-19T04:04:48;95517.50;;;13.07;59.02
55171;BME280;41060;47.510;8.680;2023-10-19T04:07:18;95511.34;;;12.84;60.05
55171;BME280;41060;47.510;8.680;2023-10-19T04:09:47;95518.84;;;12.72;60.35
55171;BME280;41060;47.510;8.680;2023-10-19T04:12:35;95504.94;;;12.62;60.50
55171;BME280;41060;47.510;8.680;2023-10-19T04:15:04;95494.16;;;12.63;60.04
55171;BME280;41060;47.510;8.680;2023-10-19T04:17:36;95502.84;;;12.88;59.97
55171;BME280;41060;47.510;8.680;2023-10-19T04:20:06;95503.41;;;12.76;60.60
55171;BME280;41060;47.510;8.680;2023-10-19T04:22:39;95508.88;;;12.74;60.49
55171;BME280;41060;47.510;8.680;2023-10-19T04:25:06;95504.25;;;12.76;60.64
55171;BME280;41060;47.510;8.680;2023-10-19T04:27:33;95499.00;;;12.91;60.13
55171;BME280;41060;47.510;8.680;2023-10-19T04:30:02;95495.94;;;13.02;59.58
55171;BME280;41060;47.510;8.680;2023-10-19T04:32:28;95484.78;;;13.07;60.22
55171;BME280;41060;47.510;8.680;2023-10-19T04:34:57;95490.09;;;12.84;61.32
55171;BME280;41060;47.510;8.680;2023-10-19T04:37:26;95485.31;;;13.02;60.26
55171;BME280;41060;47.510;8.680;2023-10-19T04:39:52;95481.25;;;13.14;59.67
55171;BME280;41060;47.510;8.680;2023-10-19T04:42:19;95481.03;;;13.24;59.45
55171;BME280;41060;47.510;8.680;2023-10-19T04:44:48;95480.16;;;13.00;60.34
55171;BME280;41060;47.510;8.680;2023-10-19T04:47:15;95474.44;;;12.89;60.50
55171;BME280;41060;47.510;8.680;2023-10-19T04:49:41;95417.22;;;12.55;59.99
55171;BME280;41060;47.510;8.680;2023-10-19T04:52:08;95474.66;;;13.10;59.79
55171;BME280;41060;47.510;8.680;2023-10-19T04:54:39;95475.06;;;13.22;59.51
55171;BME280;41060;47.510;8.680;2023-10-19T04:57:05;95465.03;;;13.32;58.84
55171;BME280;41060;47.510;8.680;2023-10-19T04:59:33;95459.53;;;13.33;59.06
55171;BME280;41060;47.510;8.680;2023-10-19T05:01:59;95463.31;;;13.16;59.24
55171;BME280;41060;47.510;8.680;2023-10-19T05:04:27;95466.56;;;13.03;59.97
55171;BME280;41060;47.510;8.680;2023-10-19T05:06:55;95464.69;;;13.12;59.22
55171;BME280;41060;47.510;8.680;2023-10-19T05:09:22;95466.84;;;13.09;59.26
55171;BME280;41060;47.510;8.680;2023-10-19T05:11:49;95460.72;;;13.08;59.14
55171;BME280;41060;47.510;8.680;2023-10-19T05:14:18;95457.50;;;12.90;60.31
55171;BME280;41060;47.510;8.680;2023-10-19T05:16:45;95457.03;;;12.86;59.88
55171;BME280;41060;47.510;8.680;2023-10-19T05:19:11;95449.59;;;12.82;60.21
55171;BME280;41060;47.510;8.680;2023-10-19T05:21:38;95449.22;;;12.85;60.19
55171;BME280;41060;47.510;8.680;2023-10-19T05:24:06;95451.31;;;12.97;59.73
55171;BME280;41060;47.510;8.680;2023-10-19T05:26:36;95430.41;;;12.94;59.09
55171;BME280;41060;47.510;8.680;2023-10-19T05:29:04;95450.75;;;13.10;59.28
55171;BME280;41060;47.510;8.680;2023-10-19T05:31:31;95442.69;;;12.95;60.11
55171;BME280;41060;47.510;8.680;2023-10-19T05:33:57;95440.84;;;12.96;59.67
55171;BME280;41060;47.510;8.680;2023-10-19T05:36:24;95442.75;;;12.87;59.73
55171;BME280;41060;47.510;8.680;2023-10-19T05:38:51;95439.09;;;12.88;59.73
55171;BME280;41060;47.510;8.680;2023-10-19T05:41:17;95434.13;;;12.85;59.42
55171;BME280;41060;47.510;8.680;2023-10-19T05:43:47;95436.47;;;12.80;59.79
55171;BME280;41060;47.510;8.680;2023-10-19T05:46:16;95440.50;;;12.76;60.12
55171;BME280;41060;47.510;8.680;2023-10-19T05:48:43;95423.03;;;12.82;59.78
55171;BME280;41060;47.510;8.680;2023-10-19T05:51:12;95423.09;;;12.96;59.11
55171;BME280;41060;47.510;8.680;2023-10-19T05:53:39;95416.53;;;13.07;58.81
55171;BME280;41060;47.510;8.680;2023-10-19T05:56:06;95413.38;;;13.12;58.55
55171;BME280;41060;47.510;8.680;2023-10-19T05:58:33;95417.41;;;13.22;57.99
55171;BME280;41060;47.510;8.680;2023-10-19T06:01:00;95417.06;;;13.25;58.04
55171;BME280;41060;47.510;8.680;2023-10-19T06:03:28;95415.06;;;13.27;58.26
55171;BME280;41060;47.510;8.680;2023-10-19T06:05:56;95392.56;;;13.15;57.98
55171;BME280;41060;47.510;8.680;2023-10-19T06:08:25;95417.19;;;13.32;58.01
55171;BME280;41060;47.510;8.680;2023-10-19T06:10:52;95423.78;;;13.36;58.07
55171;BME280;41060;47.510;8.680;2023-10-19T06:13:20;95410.69;;;13.34;57.71
55171;BME280;41060;47.510;8.680;2023-10-19T06:15:47;95413.78;;;13.38;57.78
55171;BME280;41060;47.510;8.680;2023-10-19T06:18:14;95411.69;;;13.33;57.88
55171;BME280;41060;47.510;8.680;2023-10-19T06:20:44;95418.00;;;13.32;57.30
55171;BME280;41060;47.510;8.680;2023-10-19T06:23:11;95416.91;;;13.27;57.35
55171;BME280;41060;47.510;8.680;2023-10-19T06:25:38;95419.19;;;13.30;57.45
55171;BME280;41060;47.510;8.680;2023-10-19T06:28:05;95419.00;;;13.31;57.62
55171;BME280;41060;47.510;8.680;2023-10-19T06:30:32;95419.66;;;13.33;57.46
55171;BME280;41060;47.510;8.680;2023-10-19T06:33:01;95427.94;;;13.16;58.51
55171;BME280;41060;47.510;8.680;2023-10-19T06:35:29;95418.22;;;13.00;59.32
55171;BME280;41060;47.510;8.680;2023-10-19T06:37:59;95416.84;;;12.89;59.49
55171;BME280;41060;47.510;8.680;2023-10-19T06:40:26;95420.22;;;12.83;60.00
55171;BME280;41060;47.510;8.680;2023-10-19T06:42:54;95411.47;;;12.97;59.33
55171;BME280;41060;47.510;8.680;2023-10-19T06:45:22;95385.78;;;12.90;59.15
55171;BME280;41060;47.510;8.680;2023-10-19T06:47:49;95413.09;;;13.21;58.73
55171;BME280;41060;47.510;8.680;2023-10-19T06:50:19;95403.78;;;13.25;58.45
55171;BME280;41060;47.510;8.680;2023-10-19T06:52:47;95398.56;;;13.32;58.55
55171;BME280;41060;47.510;8.680;2023-10-19T06:55:16;95399.69;;;13.37;58.40
55171;BME280;41060;47.510;8.680;2023-10-19T06:57:47;95394.34;;;13.37;58.20
55171;BME280;41060;47.510;8.680;2023-10-19T07:00:15;95395.84;;;13.40;58.65
55171;BME280;41060;47.510;8.680;2023-10-19T07:02:45;95380.13;;;13.30;57.96
55171;BME280;41060;47.510;8.680;2023-10-19T07:05:12;95418.03;;;13.47;58.17
55171;BME280;41060;47.510;8.680;2023-10-19T07:07:43;95409.22;;;13.32;58.35
55171;BME280;41060;47.510;8.680;2023-10-19T07:10:11;95402.47;;;13.21;59.02
55171;BME280;41060;47.510;8.680;2023-10-19T07:12:43;95401.78;;;13.27;58.69
55171;BME280;41060;47.510;8.680;2023-10-19T07:15:10;95400.19;;;13.18;58.93
55171;BME280;41060;47.510;8.680;2023-10-19T07:17:39;95397.06;;;13.15;59.20
55171;BME280;41060;47.510;8.680;2023-10-19T07:20:07;95408.88;;;13.12;59.10
55171;BME280;41060;47.510;8.680;2023-10-19T07:22:37;95400.63;;;12.99;59.61
55171;BME280;41060;47.510;8.680;2023-10-19T07:25:05;95414.41;;;13.02;59.38
55171;BME280;41060;47.510;8.680;2023-10-19T07:27:33;95400.53;;;13.15;59.36
55171;BME280;41060;47.510;8.680;2023-10-19T07:30:02;95396.09;;;13.30;59.09
55171;BME280;41060;47.510;8.680;2023-10-19T07:32:31;95398.31;;;13.41;59.10
55171;BME280;41060;47.510;8.680;2023-10-19T07:34:58;95400.53;;;13.53;58.46
55171;BME280;41060;47.510;8.680;2023-10-19T07:37:25;95394.69;;;13.57;57.88
55171;BME280;41060;47.510;8.680;2023-10-19T07:39:52;95388.44;;;13.65;57.66
55171;BME280;41060;47.510;8.680;2023-10-19T07:42:22;95385.06;;;13.71;57.57
55171;BME280;41060;47.510;8.680;2023-10-19T07:44:49;95386.97;;;13.77;57.89
55171;BME280;41060;47.510;8.680;2023-10-19T07:47:17;95382.09;;;13.80;57.66
55171;BME280;41060;47.510;8.680;2023-10-19T07:49:43;95385.31;;;13.76;57.77
55171;BME280;41060;47.510;8.680;2023-10-19T07:52:13;95378.91;;;13.56;58.26
55171;BME280;41060;47.510;8.680;2023-10-19T07:54:39;95376.50;;;13.61;58.42
55171;BME280;41060;47.510;8.680;2023-10-19T07:57:06;95381.19;;;13.59;58.44
55171;BME280;41060;47.510;8.680;2023-10-19T07:59:33;95373.84;;;13.46;58.85
55171;BME280;41060;47.510;8.680;2023-10-19T08:02:01;95380.00;;;13.47;59.02
55171;BME280;41060;47.510;8.680;2023-10-19T08:04:29;95376.25;;;13.56;58.80
55171;BME280;41060;47.510;8.680;2023-10-19T08:06:57;95370.84;;;13.64;59.08
55171;BME280;41060;47.510;8.680;2023-10-19T08:09:24;95374.69;;;13.61;59.40
55171;BME280;41060;47.510;8.680;2023-10-19T08:11:57;95372.03;;;13.61;58.99
55171;BME280;41060;47.510;8.680;2023-10-19T08:14:24;95371.28;;;13.53;60.14
55171;BME280;41060;47.510;8.680;2023-10-19T08:16:51;95371.00;;;13.33;60.80
55171;BME280;41060;47.510;8.680;2023-10-19T08:19:21;95367.44;;;13.40;61.00
55171;BME280;41060;47.510;8.680;2023-10-19T08:21:49;95356.97;;;13.54;61.13
55171;BME280;41060;47.510;8.680;2023-10-19T08:24:15;95358.16;;;13.66;60.49
55171;BME280;41060;47.510;8.680;2023-10-19T08:26:43;95355.31;;;13.82;59.26
55171;BME280;41060;47.510;8.680;2023-10-19T08:29:10;95342.84;;;13.97;58.75
55171;BME280;41060;47.510;8.680;2023-10-19T08:31:40;95338.53;;;14.11;58.29
55171;BME280;41060;47.510;8.680;2023-10-19T08:34:07;95319.72;;;14.12;58.43
55171;BME280;41060;47.510;8.680;2023-10-19T08:36:39;95335.28;;;14.30;58.09
55171;BME280;41060;47.510;8.680;2023-10-19T08:39:08;95344.41;;;14.42;58.33
55171;BME280;41060;47.510;8.680;2023-10-19T08:41:38;95343.28;;;14.51;57.71
55171;BME280;41060;47.510;8.680;2023-10-19T08:44:07;95348.22;;;14.54;57.79
55171;BME280;41060;47.510;8.680;2023-10-19T08:46:36;95353.84;;;14.60;58.17
55171;BME280;41060;47.510;8.680;2023-10-19T08:49:04;95340.56;;;14.66;57.88
55171;BME280;41060;47.510;8.680;2023-10-19T08:51:30;95347.38;;;14.69;57.58
55171;BME280;41060;47.510;8.680;2023-10-19T08:53:57;95346.78;;;14.73;57.55
55171;BME280;41060;47.510;8.680;2023-10-19T08:56:26;95359.75;;;14.76;57.45
55171;BME280;41060;47.510;8.680;2023-10-19T08:58:53;95358.09;;;14.75;57.69
55171;BME280;41060;47.510;8.680;2023-10-19T09:01:19;95366.38;;;14.66;57.27
55171;BME280;41060;47.510;8.680;2023-10-19T09:03:50;95355.97;;;14.49;57.80
55171;BME280;41060;47.510;8.680;2023-10-19T09:06:17;95351.34;;;14.58;57.98
55171;BME280;41060;47.510;8.680;2023-10-19T09:08:46;95354.19;;;14.78;58.16
55171;BME280;41060;47.510;8.680;2023-10-19T09:11:14;95352.63;;;14.83;57.79
55171;BME280;41060;47.510;8.680;2023-10-19T09:13:46;95349.16;;;14.83;58.49
55171;BME280;41060;47.510;8.680;2023-10-19T09:16:14;95335.25;;;14.87;58.91
55171;BME280;41060;47.510;8.680;2023-10-19T09:18:43;95320.91;;;14.88;58.27
55171;BME280;41060;47.510;8.680;2023-10-19T09:21:10;95312.47;;;14.85;58.62
55171;BME280;41060;47.510;8.680;2023-10-19T09:23:38;95297.31;;;14.85;58.97
55171;BME280;41060;47.510;8.680;2023-10-19T09:26:06;95295.09;;;14.89;58.95
55171;BME280;41060;47.510;8.680;2023-10-19T09:28:37;95238.34;;;14.67;58.77
55171;BME280;41060;47.510;8.680;2023-10-19T09:31:05;95277.69;;;14.93;58.75
55171;BME280;41060;47.510;8.680;2023-10-19T09:33:35;95284.75;;;14.79;60.56
55171;BME280;41060;47.510;8.680;2023-10-19T09:36:03;95281.22;;;15.00;60.40
55171;BME280;41060;47.510;8.680;2023-10-19T09:38:38;95282.47;;;15.25;59.54
55171;BME280;41060;47.510;8.680;2023-10-19T09:41:08;95268.84;;;15.42;59.08
55171;BME280;41060;47.510;8.680;2023-10-19T09:43:42;95278.97;;;15.25;59.74
55171;BME280;41060;47.510;8.680;2023-10-19T09:46:11;95281.41;;;15.20;60.10
55171;BME280;41060;47.510;8.680;2023-10-19T09:48:40;95290.91;;;15.08;60.48
55171;BME280;41060;47.510;8.680;2023-10-19T09:51:09;95292.84;;;15.14;59.83
55171;BME280;41060;47.510;8.680;2023-10-19T09:53:36;95293.88;;;15.13;60.40
55171;BME280;41060;47.510;8.680;2023-10-19T09:56:06;95274.19;;;15.14;60.10
55171;BME280;41060;47.510;8.680;2023-10-19T09:58:36;95296.25;;;15.08;60.22
55171;BME280;41060;47.510;8.680;2023-10-19T10:01:06;95288.13;;;15.16;60.57
55171;BME280;41060;47.510;8.680;2023-10-19T10:03:49;95277.00;;;15.33;60.11
55171;BME280;41060;47.510;8.680;2023-10-19T10:06:18;95273.63;;;15.59;59.08
55171;BME280;41060;47.510;8.680;2023-10-19T10:08:53;95272.09;;;15.78;58.85
55171;BME280;41060;47.510;8.680;2023-10-19T10:11:22;95267.44;;;15.93;58.02
55171;BME280;41060;47.510;8.680;2023-10-19T10:13:51;95267.03;;;15.96;57.98
55171;BME280;41060;47.510;8.680;2023-10-19T10:16:18;95238.72;;;16.02;57.71
55171;BME280;41060;47.510;8.680;2023-10-19T10:18:48;95272.47;;;16.09;58.01
55171;BME280;41060;47.510;8.680;2023-10-19T10:21:17;95259.59;;;16.39;57.21
55171;BME280;41060;47.510;8.680;2023-10-19T10:23:50;95259.00;;;16.70;56.97
55171;BME280;41060;47.510;8.680;2023-10-19T10:26:19;95260.69;;;16.98;56.29
55171;BME280;41060;47.510;8.680;2023-10-19T10:28:50;95261.28;;;17.00;57.07
55171;BME280;41060;47.510;8.680;2023-10-19T10:31:46;95242.56;;;17.26;57.10
55171;BME280;41060;47.510;8.680;2023-10-19T10:34:42;95251.09;;;17.67;55.37
55171;BME280;41060;47.510;8.680;2023-10-19T10:37:11;95254.63;;;17.61;54.60
55171;BME280;41060;47.510;8.680;2023-10-19T10:39:39;95250.72;;;17.64;55.87
55171;BME280;41060;47.510;8.680;2023-10-19T10:42:08;95249.81;;;17.90;55.17
55171;BME280;41060;47.510;8.680;2023-10-19T10:44:39;95255.31;;;18.01;54.47
55171;BME280;41060;47.510;8.680;2023-10-19T10:47:08;95254.19;;;17.71;54.64
55171;BME280;41060;47.510;8.680;2023-10-19T10:49:50;95245.38;;;17.57;54.55
55171;BME280;41060;47.510;8.680;2023-10-19T10:52:24;95240.13;;;17.82;55.22
55171;BME280;41060;47.510;8.680;2023-10-19T10:54:51;95230.75;;;18.11;53.75
55171;BME280;41060;47.510;8.680;2023-10-19T10:57:18;95226.13;;;18.31;53.67
55171;BME280;41060;47.510;8.680;2023-10-19T10:59:45;95221.31;;;18.40;53.24
55171;BME280;41060;47.510;8.680;2023-10-19T11:02:17;95211.28;;;18.60;52.77
55171;BME280;41060;47.510;8.680;2023-10-19T11:04:44;95212.09;;;18.67;52.05
55171;BME280;41060;47.510;8.680;2023-10-19T11:07:19;95181.47;;;18.50;51.77
55171;BME280;41060;47.510;8.680;2023-10-19T11:09:47;95197.28;;;18.58;51.90
55171;BME280;41060;47.510;8.680;2023-10-19T11:12:14;95184.31;;;18.55;52.27
55171;BME280;41060;47.510;8.680;2023-10-19T11:14:51;95187.47;;;18.46;52.04
55171;BME280;41060;47.510;8.680;2023-10-19T11:17:19;95181.50;;;18.43;52.58
55171;BME280;41060;47.510;8.680;2023-10-19T11:19:49;95174.34;;;18.37;53.01
55171;BME280;41060;47.510;8.680;2023-10-19T11:22:15;95182.94;;;18.46;52.92
55171;BME280;41060;47.510;8.680;2023-10-19T11:24:44;95175.47;;;18.23;53.19
55171;BME280;41060;47.510;8.680;2023-10-19T11:27:10;95186.13;;;17.98;53.64
55171;BME280;41060;47.510;8.680;2023-10-19T11:29:37;95177.72;;;17.88;53.98
55171;BME280;41060;47.510;8.680;2023-10-19T11:32:05;95176.69;;;17.89;54.36
55171;BME280;41060;47.510;8.680;2023-10-19T11:34:31;95168.09;;;17.87;54.26
55171;BME280;41060;47.510;8.680;2023-10-19T11:36:59;95157.78;;;17.84;54.25
55171;BME280;41060;47.510;8.680;2023-10-19T11:39:29;95147.00;;;17.97;54.37
55171;BME280;41060;47.510;8.680;2023-10-19T11:41:57;95151.13;;;18.00;54.62
55171;BME280;41060;47.510;8.680;2023-10-19T11:44:23;95143.03;;;18.07;54.10
55171;BME280;41060;47.510;8.680;2023-10-19T11:46:54;95144.38;;;18.22;53.92
55171;BME280;41060;47.510;8.680;2023-10-19T11:49:21;95141.44;;;18.30;53.88
55171;BME280;41060;47.510;8.680;2023-10-19T11:51:50;95150.25;;;18.37;53.95
55171;BME280;41060;47.510;8.680;2023-10-19T11:54:17;95139.25;;;18.46;53.44
55171;BME280;41060;47.510;8.680;2023-10-19T11:56:44;95149.88;;;18.59;53.04
55171;BME280;41060;47.510;8.680;2023-10-19T11:59:12;95154.88;;;18.49;53.66
55171;BME280;41060;47.510;8.680;2023-10-19T12:01:41;95139.84;;;18.23;54.77
55171;BME280;41060;47.510;8.680;2023-10-19T12:04:08;95144.22;;;18.17;54.42
55171;BME280;41060;47.510;8.680;2023-10-19T12:06:35;95147.47;;;18.19;54.46
55171;BME280;41060;47.510;8.680;2023-10-19T12:09:02;95134.13;;;17.75;55.49
55171;BME280;41060;47.510;8.680;2023-10-19T12:11:39;95131.19;;;17.83;55.55
55171;BME280;41060;47.510;8.680;2023-10-19T12:14:07;95134.88;;;17.95;55.54
55171;BME280;41060;47.510;8.680;2023-10-19T12:16:38;95139.66;;;17.86;55.38
55171;BME280;41060;47.510;8.680;2023-10-19T12:19:05;95135.25;;;17.98;55.30
55171;BME280;41060;47.510;8.680;2023-10-19T12:21:33;95136.19;;;18.17;56.14
55171;BME280;41060;47.510;8.680;2023-10-19T12:24:01;95141.50;;;18.24;55.45
55171;BME280;41060;47.510;8.680;2023-10-19T12:26:30;95140.44;;;18.25;55.29
55171;BME280;41060;47.510;8.680;2023-10-19T12:28:57;95136.94;;;18.24;54.71
55171;BME280;41060;47.510;8.680;2023-10-19T12:31:24;95138.47;;;18.14;55.14
55171;BME280;41060;47.510;8.680;2023-10-19T12:33:52;95130.59;;;18.43;54.57
55171;BME280;41060;47.510;8.680;2023-10-19T12:36:19;95127.13;;;18.68;54.27
55171;BME280;41060;47.510;8.680;2023-10-19T12:38:57;95124.47;;;18.86;53.30
55171;BME280;41060;47.510;8.680;2023-10-19T12:41:26;95117.78;;;18.95;53.04
55171;BME280;41060;47.510;8.680;2023-10-19T12:43:52;95122.13;;;18.96;52.89
55171;BME280;41060;47.510;8.680;2023-10-19T12:46:23;95116.81;;;18.90;52.96
55171;BME280;41060;47.510;8.680;2023-10-19T12:48:52;95113.22;;;18.77;54.12
55171;BME280;41060;47.510;8.680;2023-10-19T12:51:19;95103.59;;;18.70;54.19
55171;BME280;41060;47.510;8.680;2023-10-19T12:53:50;95095.66;;;18.82;53.41
55171;BME280;41060;47.510;8.680;2023-10-19T12:56:18;95083.59;;;18.91;53.86
55171;BME280;41060;47.510;8.680;2023-10-19T12:58:44;95082.25;;;18.82;53.82
55171;BME280;41060;47.510;8.680;2023-10-19T13:01:14;95069.22;;;18.67;53.87
55171;BME280;41060;47.510;8.680;2023-10-19T13:03:45;95083.44;;;18.86;54.53
55171;BME280;41060;47.510;8.680;2023-10-19T13:06:13;95083.31;;;18.99;53.91
55171;BME280;41060;47.510;8.680;2023-10-19T13:08:40;95081.31;;;19.12;53.18
55171;BME280;41060;47.510;8.680;2023-10-19T13:11:08;95087.53;;;19.25;53.42